sensor_id;sensor_type;location;lat;lon;timestamp;P1;durP1;ratioP1;P2;durP2;ratioP2
34204;SDS011;20471;49.680;20.074;2023-05-18T00:02:18;9.40;;;7.40;;
34204;SDS011;20471;49.680;20.074;2023-05-18T00:04:46;8.60;;;7.50;;
34204;SDS011;20471;49.680;20.074;2023-05-18T00:07:15;9.20;;;8.00;;
34204;SDS011;20471;49.680;20.074;2023-05-18T00:09:43;11.00;;;6.90;;
34204;SDS011;20471;49.680;20.074;2023-05-18T00:12:11;8.40;;;6.80;;
34204;SDS011;20471;49.680;20.074;2023-05-18T00:14:39;7.40;;;6.40;;
34204;SDS011;20471;49.680;20.074;2023-05-18T00:17:07;7.90;;;6.90;;
34204;SDS011;20471;49.680;20.074;2023-05-18T00:19:35;7.80;;;7.00;;
34204;SDS011;20471;49.680;20.074;2023-05-18T00:22:03;9.30;;;6.80;;
34204;SDS011;20471;49.680;20.074;2023-05-18T00:24:33;8.10;;;6.30;;
34204;SDS011;20471;49.680;20.074;2023-05-18T00:27:01;11.20;;;7.90;;
34204;SDS011;20471;49.680;20.074;2023-05-18T00:29:29;9.70;;;7.70;;
34204;SDS011;20471;49.680;20.074;2023-05-18T00:31:57;9.30;;;8.40;;
34204;SDS011;20471;49.680;20.074;2023-05-18T00:34:25;9.00;;;8.00;;
34204;SDS011;20471;49.680;20.074;2023-05-18T00:36:53;9.50;;;8.10;;
34204;SDS011;20471;49.680;20.074;2023-05-18T00:39:21;7.80;;;7.00;;
34204;SDS011;20471;49.680;20.074;2023-05-18T00:41:49;8.20;;;7.20;;
34204;SDS011;20471;49.680;20.074;2023-05-18T00:44:17;11.20;;;7.60;;
34204;SDS011;20471;49.680;20.074;2023-05-18T00:46:45;8.70;;;6.70;;
34204;SDS011;20471;49.680;20.074;2023-05-18T00:49:13;10.10;;;7.60;;
34204;SDS011;20471;49.680;20.074;2023-05-18T00:51:41;8.20;;;6.80;;
34204;SDS011;20471;49.680;20.074;2023-05-18T00:54:10;8.70;;;7.70;;
34204;SDS011;20471;49.680;20.074;2023-05-18T00:56:39;9.80;;;7.70;;
34204;SDS011;20471;49.680;20.074;2023-05-18T00:59:07;10.70;;;7.80;;
34204;SDS011;20471;49.680;20.074;2023-05-18T01:01:37;9.40;;;6.80;;
34204;SDS011;20471;49.680;20.074;2023-05-18T01:04:08;8.10;;;6.90;;
34204;SDS011;20471;49.680;20.074;2023-05-18T01:06:40;9.90;;;7.70;;
34204;SDS011;20471;49.680;20.074;2023-05-18T01:09:09;9.10;;;6.90;;
34204;SDS011;20471;49.680;20.074;2023-05-18T01:11:43;8.50;;;6.50;;
34204;SDS011;20471;49.680;20.074;2023-05-18T01:14:17;10.10;;;6.60;;
34204;SDS011;20471;49.680;20.074;2023-05-18T01:17:00;9.30;;;6.60;;
34204;SDS011;20471;49.680;20.074;2023-05-18T01:24:50;8.90;;;7.00;;
34204;SDS011;20471;49.680;20.074;2023-05-18T01:27:24;9.20;;;6.50;;
34204;SDS011;20471;49.680;20.074;2023-05-18T01:29:53;8.90;;;6.80;;
34204;SDS011;20471;49.680;20.074;2023-05-18T01:32:22;8.70;;;6.80;;
34204;SDS011;20471;49.680;20.074;2023-05-18T01:34:50;9.40;;;6.70;;
34204;SDS011;20471;49.680;20.074;2023-05-18T01:37:18;7.60;;;6.30;;
34204;SDS011;20471;49.680;20.074;2023-05-18T01:39:46;10.30;;;6.30;;
34204;SDS011;20471;49.680;20.074;2023-05-18T01:42:18;10.70;;;7.60;;
34204;SDS011;20471;49.680;20.074;2023-05-18T01:44:53;9.90;;;7.10;;
34204;SDS011;20471;49.680;20.074;2023-05-18T01:47:29;10.30;;;7.40;;
34204;SDS011;20471;49.680;20.074;2023-05-18T01:52:41;8.40;;;7.50;;
34204;SDS011;20471;49.680;20.074;2023-05-18T01:55:24;8.40;;;7.40;;
34204;SDS011;20471;49.680;20.074;2023-05-18T02:00:25;9.40;;;7.90;;
34204;SDS011;20471;49.680;20.074;2023-05-18T02:02:54;8.10;;;7.00;;
34204;SDS011;20471;49.680;20.074;2023-05-18T02:05:22;8.50;;;7.20;;
34204;SDS011;20471;49.680;20.074;2023-05-18T02:07:50;8.70;;;7.40;;
34204;SDS011;20471;49.680;20.074;2023-05-18T02:10:18;7.70;;;6.90;;
34204;SDS011;20471;49.680;20.074;2023-05-18T02:12:46;8.10;;;7.20;;
34204;SDS011;20471;49.680;20.074;2023-05-18T02:15:18;9.70;;;7.70;;
34204;SDS011;20471;49.680;20.074;2023-05-18T02:17:46;11.80;;;8.30;;
34204;SDS011;20471;49.680;20.074;2023-05-18T02:20:14;8.00;;;6.90;;
34204;SDS011;20471;49.680;20.074;2023-05-18T02:22:43;9.40;;;7.80;;
34204;SDS011;20471;49.680;20.074;2023-05-18T02:25:12;10.20;;;8.20;;
34204;SDS011;20471;49.680;20.074;2023-05-18T02:27:40;9.40;;;8.00;;
34204;SDS011;20471;49.680;20.074;2023-05-18T02:30:08;8.80;;;7.80;;
34204;SDS011;20471;49.680;20.074;2023-05-18T02:32:36;9.20;;;7.20;;
34204;SDS011;20471;49.680;20.074;2023-05-18T02:35:05;7.90;;;7.10;;
34204;SDS011;20471;49.680;20.074;2023-05-18T02:37:34;9.40;;;6.80;;
34204;SDS011;20471;49.680;20.074;2023-05-18T02:40:07;7.80;;;6.90;;
34204;SDS011;20471;49.680;20.074;2023-05-18T02:42:37;7.20;;;6.50;;
34204;SDS011;20471;49.680;20.074;2023-05-18T02:45:06;8.00;;;6.60;;
34204;SDS011;20471;49.680;20.074;2023-05-18T02:47:34;7.90;;;6.40;;
34204;SDS011;20471;49.680;20.074;2023-05-18T02:50:02;6.60;;;5.90;;
34204;SDS011;20471;49.680;20.074;2023-05-18T02:52:31;7.60;;;6.70;;
34204;SDS011;20471;49.680;20.074;2023-05-18T02:54:59;8.40;;;7.50;;
34204;SDS011;20471;49.680;20.074;2023-05-18T02:57:27;8.10;;;7.30;;
34204;SDS011;20471;49.680;20.074;2023-05-18T02:59:55;8.90;;;8.00;;
34204;SDS011;20471;49.680;20.074;2023-05-18T03:02:23;9.10;;;7.80;;
34204;SDS011;20471;49.680;20.074;2023-05-18T03:04:53;11.20;;;8.00;;
34204;SDS011;20471;49.680;20.074;2023-05-18T03:07:22;9.80;;;8.10;;
34204;SDS011;20471;49.680;20.074;2023-05-18T03:09:52;9.00;;;7.90;;
34204;SDS011;20471;49.680;20.074;2023-05-18T03:12:21;9.50;;;8.30;;
34204;SDS011;20471;49.680;20.074;2023-05-18T03:14:49;8.60;;;7.80;;
34204;SDS011;20471;49.680;20.074;2023-05-18T03:17:17;9.20;;;8.10;;
34204;SDS011;20471;49.680;20.074;2023-05-18T03:19:45;9.10;;;6.90;;
34204;SDS011;20471;49.680;20.074;2023-05-18T03:22:13;9.10;;;7.10;;
34204;SDS011;20471;49.680;20.074;2023-05-18T03:24:41;9.20;;;7.30;;
34204;SDS011;20471;49.680;20.074;2023-05-18T03:27:10;8.60;;;7.30;;
34204;SDS011;20471;49.680;20.074;2023-05-18T03:29:41;6.80;;;6.00;;
34204;SDS011;20471;49.680;20.074;2023-05-18T03:32:09;7.20;;;5.70;;
34204;SDS011;20471;49.680;20.074;2023-05-18T03:34:37;7.20;;;6.30;;
34204;SDS011;20471;49.680;20.074;2023-05-18T03:37:05;8.10;;;6.40;;
34204;SDS011;20471;49.680;20.074;2023-05-18T03:39:33;7.10;;;6.10;;
34204;SDS011;20471;49.680;20.074;2023-05-18T03:42:01;7.20;;;5.90;;
34204;SDS011;20471;49.680;20.074;2023-05-18T03:44:30;9.20;;;5.80;;
34204;SDS011;20471;49.680;20.074;2023-05-18T03:46:58;7.20;;;5.80;;
34204;SDS011;20471;49.680;20.074;2023-05-18T03:49:26;8.50;;;5.80;;
34204;SDS011;20471;49.680;20.074;2023-05-18T03:51:55;6.90;;;6.20;;
34204;SDS011;20471;49.680;20.074;2023-05-18T03:54:23;4.80;;;4.20;;
34204;SDS011;20471;49.680;20.074;2023-05-18T03:56:51;6.10;;;4.40;;
34204;SDS011;20471;49.680;20.074;2023-05-18T03:59:19;4.40;;;3.90;;
34204;SDS011;20471;49.680;20.074;2023-05-18T04:01:47;5.30;;;4.10;;
34204;SDS011;20471;49.680;20.074;2023-05-18T04:04:19;5.00;;;4.30;;
34204;SDS011;20471;49.680;20.074;2023-05-18T04:06:49;5.10;;;4.30;;
34204;SDS011;20471;49.680;20.074;2023-05-18T04:09:18;4.80;;;4.40;;
34204;SDS011;20471;49.680;20.074;2023-05-18T04:11:49;4.60;;;4.00;;
34204;SDS011;20471;49.680;20.074;2023-05-18T04:14:17;3.90;;;3.50;;
34204;SDS011;20471;49.680;20.074;2023-05-18T04:16:46;5.90;;;3.70;;
34204;SDS011;20471;49.680;20.074;2023-05-18T04:19:14;3.50;;;3.20;;
34204;SDS011;20471;49.680;20.074;2023-05-18T04:21:42;3.10;;;2.80;;
34204;SDS011;20471;49.680;20.074;2023-05-18T04:24:12;4.80;;;3.70;;
34204;SDS011;20471;49.680;20.074;2023-05-18T04:26:41;3.80;;;3.50;;
34204;SDS011;20471;49.680;20.074;2023-05-18T04:29:09;3.80;;;2.80;;
34204;SDS011;20471;49.680;20.074;2023-05-18T04:31:38;2.90;;;2.70;;
34204;SDS011;20471;49.680;20.074;2023-05-18T04:34:10;3.40;;;2.60;;
34204;SDS011;20471;49.680;20.074;2023-05-18T04:36:38;12.60;;;9.10;;
34204;SDS011;20471;49.680;20.074;2023-05-18T04:39:08;9.60;;;7.70;;
34204;SDS011;20471;49.680;20.074;2023-05-18T04:41:37;6.30;;;5.30;;
34204;SDS011;20471;49.680;20.074;2023-05-18T04:44:07;4.50;;;3.30;;
34204;SDS011;20471;49.680;20.074;2023-05-18T04:46:35;2.30;;;2.00;;
34204;SDS011;20471;49.680;20.074;2023-05-18T04:49:06;1.40;;;1.10;;
34204;SDS011;20471;49.680;20.074;2023-05-18T04:51:34;1.50;;;0.90;;
34204;SDS011;20471;49.680;20.074;2023-05-18T04:54:02;1.60;;;1.40;;
34204;SDS011;20471;49.680;20.074;2023-05-18T04:56:31;4.40;;;2.00;;
34204;SDS011;20471;49.680;20.074;2023-05-18T04:59:00;4.80;;;2.50;;
34204;SDS011;20471;49.680;20.074;2023-05-18T05:01:28;5.30;;;2.90;;
34204;SDS011;20471;49.680;20.074;2023-05-18T05:03:56;4.60;;;2.70;;
34204;SDS011;20471;49.680;20.074;2023-05-18T05:06:24;3.20;;;2.30;;
34204;SDS011;20471;49.680;20.074;2023-05-18T05:08:52;4.40;;;2.60;;
34204;SDS011;20471;49.680;20.074;2023-05-18T05:11:20;4.40;;;2.60;;
34204;SDS011;20471;49.680;20.074;2023-05-18T05:13:48;3.90;;;2.10;;
34204;SDS011;20471;49.680;20.074;2023-05-18T05:16:16;3.10;;;2.20;;
34204;SDS011;20471;49.680;20.074;2023-05-18T05:18:44;4.70;;;2.30;;
34204;SDS011;20471;49.680;20.074;2023-05-18T05:21:12;4.50;;;2.30;;
34204;SDS011;20471;49.680;20.074;2023-05-18T05:23:40;4.00;;;2.30;;
34204;SDS011;20471;49.680;20.074;2023-05-18T05:26:10;4.40;;;2.20;;
34204;SDS011;20471;49.680;20.074;2023-05-18T05:28:38;3.90;;;2.40;;
34204;SDS011;20471;49.680;20.074;2023-05-18T05:31:06;6.00;;;3.80;;
34204;SDS011;20471;49.680;20.074;2023-05-18T05:33:34;4.00;;;2.30;;
34204;SDS011;20471;49.680;20.074;2023-05-18T05:36:03;3.90;;;2.60;;
34204;SDS011;20471;49.680;20.074;2023-05-18T05:38:31;4.50;;;2.60;;
34204;SDS011;20471;49.680;20.074;2023-05-18T05:40:59;5.10;;;2.60;;
34204;SDS011;20471;49.680;20.074;2023-05-18T05:43:28;4.30;;;2.70;;
34204;SDS011;20471;49.680;20.074;2023-05-18T05:45:56;5.40;;;2.50;;
34204;SDS011;20471;49.680;20.074;2023-05-18T05:48:24;5.70;;;3.00;;
34204;SDS011;20471;49.680;20.074;2023-05-18T05:50:52;5.80;;;2.40;;
34204;SDS011;20471;49.680;20.074;2023-05-18T05:53:20;5.50;;;2.10;;
34204;SDS011;20471;49.680;20.074;2023-05-18T05:55:48;6.40;;;2.60;;
34204;SDS011;20471;49.680;20.074;2023-05-18T05:58:17;4.40;;;1.90;;
34204;SDS011;20471;49.680;20.074;2023-05-18T06:00:45;3.80;;;2.80;;
34204;SDS011;20471;49.680;20.074;2023-05-18T06:03:14;3.20;;;2.40;;
34204;SDS011;20471;49.680;20.074;2023-05-18T06:05:42;4.80;;;2.40;;
34204;SDS011;20471;49.680;20.074;2023-05-18T06:08:10;4.40;;;2.20;;
34204;SDS011;20471;49.680;20.074;2023-05-18T06:10:38;5.50;;;2.40;;
34204;SDS011;20471;49.680;20.074;2023-05-18T06:13:06;3.50;;;2.50;;
34204;SDS011;20471;49.680;20.074;2023-05-18T06:15:34;4.30;;;2.50;;
34204;SDS011;20471;49.680;20.074;2023-05-18T06:18:02;4.30;;;2.40;;
34204;SDS011;20471;49.680;20.074;2023-05-18T06:20:31;4.90;;;2.60;;
34204;SDS011;20471;49.680;20.074;2023-05-18T06:22:59;5.40;;;2.30;;
34204;SDS011;20471;49.680;20.074;2023-05-18T06:25:27;5.70;;;2.70;;
34204;SDS011;20471;49.680;20.074;2023-05-18T06:27:55;4.50;;;2.60;;
34204;SDS011;20471;49.680;20.074;2023-05-18T06:30:23;3.30;;;2.40;;
34204;SDS011;20471;49.680;20.074;2023-05-18T06:32:52;5.40;;;2.50;;
34204;SDS011;20471;49.680;20.074;2023-05-18T06:35:20;3.70;;;2.40;;
34204;SDS011;20471;49.680;20.074;2023-05-18T06:37:48;4.80;;;2.80;;
34204;SDS011;20471;49.680;20.074;2023-05-18T06:40:17;4.80;;;2.60;;
34204;SDS011;20471;49.680;20.074;2023-05-18T06:42:45;5.30;;;2.80;;
34204;SDS011;20471;49.680;20.074;2023-05-18T06:45:13;8.80;;;3.20;;
34204;SDS011;20471;49.680;20.074;2023-05-18T06:47:41;8.30;;;3.50;;
34204;SDS011;20471;49.680;20.074;2023-05-18T06:50:09;6.70;;;3.80;;
34204;SDS011;20471;49.680;20.074;2023-05-18T06:52:37;8.60;;;3.80;;
34204;SDS011;20471;49.680;20.074;2023-05-18T06:55:05;7.90;;;3.90;;
34204;SDS011;20471;49.680;20.074;2023-05-18T06:57:34;6.20;;;3.50;;
34204;SDS011;20471;49.680;20.074;2023-05-18T07:00:02;9.10;;;4.00;;
34204;SDS011;20471;49.680;20.074;2023-05-18T07:02:32;4.50;;;3.00;;
34204;SDS011;20471;49.680;20.074;2023-05-18T07:05:00;6.50;;;3.30;;
34204;SDS011;20471;49.680;20.074;2023-05-18T07:07:31;6.70;;;2.60;;
34204;SDS011;20471;49.680;20.074;2023-05-18T07:10:00;6.20;;;2.60;;
34204;SDS011;20471;49.680;20.074;2023-05-18T07:12:29;5.10;;;2.70;;
34204;SDS011;20471;49.680;20.074;2023-05-18T07:14:57;3.70;;;2.50;;
34204;SDS011;20471;49.680;20.074;2023-05-18T07:17:25;4.20;;;2.50;;
34204;SDS011;20471;49.680;20.074;2023-05-18T07:19:53;5.20;;;2.30;;
34204;SDS011;20471;49.680;20.074;2023-05-18T07:22:21;2.40;;;2.10;;
34204;SDS011;20471;49.680;20.074;2023-05-18T07:24:49;2.40;;;1.80;;
34204;SDS011;20471;49.680;20.074;2023-05-18T07:27:17;3.30;;;1.90;;
34204;SDS011;20471;49.680;20.074;2023-05-18T07:29:46;4.40;;;2.20;;
34204;SDS011;20471;49.680;20.074;2023-05-18T07:32:14;2.40;;;1.80;;
34204;SDS011;20471;49.680;20.074;2023-05-18T07:34:42;4.10;;;2.30;;
34204;SDS011;20471;49.680;20.074;2023-05-18T07:37:12;3.90;;;1.90;;
34204;SDS011;20471;49.680;20.074;2023-05-18T07:39:40;4.10;;;1.90;;
34204;SDS011;20471;49.680;20.074;2023-05-18T07:42:08;2.70;;;1.80;;
34204;SDS011;20471;49.680;20.074;2023-05-18T07:44:36;3.50;;;2.00;;
34204;SDS011;20471;49.680;20.074;2023-05-18T07:47:04;4.00;;;1.80;;
34204;SDS011;20471;49.680;20.074;2023-05-18T07:49:33;2.70;;;2.00;;
34204;SDS011;20471;49.680;20.074;2023-05-18T07:52:01;3.90;;;2.50;;
34204;SDS011;20471;49.680;20.074;2023-05-18T07:54:29;4.10;;;2.40;;
34204;SDS011;20471;49.680;20.074;2023-05-18T07:56:57;4.90;;;2.50;;
34204;SDS011;20471;49.680;20.074;2023-05-18T07:59:26;4.80;;;2.70;;
34204;SDS011;20471;49.680;20.074;2023-05-18T08:01:54;6.90;;;2.50;;
34204;SDS011;20471;49.680;20.074;2023-05-18T08:04:24;4.20;;;2.50;;
34204;SDS011;20471;49.680;20.074;2023-05-18T08:06:52;3.90;;;2.50;;
34204;SDS011;20471;49.680;20.074;2023-05-18T08:09:21;2.70;;;1.80;;
34204;SDS011;20471;49.680;20.074;2023-05-18T08:11:49;3.30;;;1.90;;
34204;SDS011;20471;49.680;20.074;2023-05-18T08:14:18;3.70;;;2.10;;
34204;SDS011;20471;49.680;20.074;2023-05-18T08:16:46;5.00;;;2.00;;
34204;SDS011;20471;49.680;20.074;2023-05-18T08:19:14;6.10;;;2.10;;
34204;SDS011;20471;49.680;20.074;2023-05-18T08:21:42;6.30;;;2.40;;
34204;SDS011;20471;49.680;20.074;2023-05-18T08:24:11;4.30;;;2.30;;
34204;SDS011;20471;49.680;20.074;2023-05-18T08:26:40;4.60;;;2.00;;
34204;SDS011;20471;49.680;20.074;2023-05-18T08:29:08;3.50;;;2.10;;
34204;SDS011;20471;49.680;20.074;2023-05-18T08:31:36;5.70;;;2.40;;
34204;SDS011;20471;49.680;20.074;2023-05-18T08:34:06;4.60;;;2.50;;
34204;SDS011;20471;49.680;20.074;2023-05-18T08:36:35;5.60;;;2.40;;
34204;SDS011;20471;49.680;20.074;2023-05-18T08:39:03;6.30;;;2.30;;
34204;SDS011;20471;49.680;20.074;2023-05-18T08:41:34;5.40;;;3.30;;
34204;SDS011;20471;49.680;20.074;2023-05-18T08:44:15;6.40;;;3.00;;
34204;SDS011;20471;49.680;20.074;2023-05-18T08:46:48;3.80;;;2.70;;
34204;SDS011;20471;49.680;20.074;2023-05-18T08:49:18;4.00;;;2.80;;
34204;SDS011;20471;49.680;20.074;2023-05-18T08:51:56;4.50;;;2.90;;
34204;SDS011;20471;49.680;20.074;2023-05-18T08:54:27;6.20;;;2.70;;
34204;SDS011;20471;49.680;20.074;2023-05-18T08:56:57;5.70;;;1.90;;
34204;SDS011;20471;49.680;20.074;2023-05-18T08:59:26;6.80;;;2.40;;
34204;SDS011;20471;49.680;20.074;2023-05-18T09:02:00;4.80;;;3.00;;
34204;SDS011;20471;49.680;20.074;2023-05-18T09:04:28;3.40;;;2.50;;
34204;SDS011;20471;49.680;20.074;2023-05-18T09:06:57;5.50;;;2.20;;
34204;SDS011;20471;49.680;20.074;2023-05-18T09:09:27;4.30;;;2.40;;
34204;SDS011;20471;49.680;20.074;2023-05-18T09:11:56;3.80;;;2.20;;
34204;SDS011;20471;49.680;20.074;2023-05-18T09:14:25;4.00;;;2.40;;
34204;SDS011;20471;49.680;20.074;2023-05-18T09:16:53;4.50;;;2.00;;
34204;SDS011;20471;49.680;20.074;2023-05-18T09:19:21;4.70;;;2.90;;
34204;SDS011;20471;49.680;20.074;2023-05-18T09:21:50;6.70;;;2.60;;
34204;SDS011;20471;49.680;20.074;2023-05-18T09:24:19;7.30;;;2.60;;
34204;SDS011;20471;49.680;20.074;2023-05-18T09:26:48;4.40;;;2.20;;
34204;SDS011;20471;49.680;20.074;2023-05-18T09:29:17;7.10;;;2.00;;
34204;SDS011;20471;49.680;20.074;2023-05-18T09:31:47;3.80;;;2.10;;
34204;SDS011;20471;49.680;20.074;2023-05-18T09:34:15;4.00;;;2.10;;
34204;SDS011;20471;49.680;20.074;2023-05-18T09:36:48;3.60;;;2.30;;
34204;SDS011;20471;49.680;20.074;2023-05-18T09:39:18;6.40;;;2.50;;
34204;SDS011;20471;49.680;20.074;2023-05-18T09:41:46;3.80;;;1.80;;
34204;SDS011;20471;49.680;20.074;2023-05-18T09:44:35;6.80;;;2.80;;
34204;SDS011;20471;49.680;20.074;2023-05-18T09:47:06;8.80;;;2.90;;
34204;SDS011;20471;49.680;20.074;2023-05-18T09:49:36;5.00;;;2.40;;
34204;SDS011;20471;49.680;20.074;2023-05-18T09:52:06;5.20;;;2.70;;
34204;SDS011;20471;49.680;20.074;2023-05-18T09:54:35;4.70;;;2.60;;
34204;SDS011;20471;49.680;20.074;2023-05-18T09:57:04;12.80;;;2.90;;
34204;SDS011;20471;49.680;20.074;2023-05-18T09:59:34;3.10;;;2.00;;
34204;SDS011;20471;49.680;20.074;2023-05-18T10:02:03;3.80;;;2.00;;
34204;SDS011;20471;49.680;20.074;2023-05-18T10:04:35;3.60;;;1.80;;
34204;SDS011;20471;49.680;20.074;2023-05-18T10:07:14;6.60;;;2.10;;
34204;SDS011;20471;49.680;20.074;2023-05-18T10:09:43;3.50;;;2.30;;
34204;SDS011;20471;49.680;20.074;2023-05-18T10:12:14;3.80;;;2.50;;
34204;SDS011;20471;49.680;20.074;2023-05-18T10:14:44;4.70;;;3.10;;
34204;SDS011;20471;49.680;20.074;2023-05-18T10:17:13;4.90;;;2.50;;
34204;SDS011;20471;49.680;20.074;2023-05-18T10:19:43;3.40;;;2.10;;
34204;SDS011;20471;49.680;20.074;2023-05-18T10:22:13;4.20;;;2.40;;
34204;SDS011;20471;49.680;20.074;2023-05-18T10:24:44;5.30;;;2.10;;
34204;SDS011;20471;49.680;20.074;2023-05-18T10:27:15;2.30;;;1.70;;
34204;SDS011;20471;49.680;20.074;2023-05-18T10:29:44;2.90;;;1.90;;
34204;SDS011;20471;49.680;20.074;2023-05-18T10:32:13;4.10;;;2.10;;
34204;SDS011;20471;49.680;20.074;2023-05-18T10:34:43;3.50;;;1.60;;
34204;SDS011;20471;49.680;20.074;2023-05-18T10:37:12;3.30;;;2.20;;
34204;SDS011;20471;49.680;20.074;2023-05-18T10:39:42;2.80;;;1.50;;
34204;SDS011;20471;49.680;20.074;2023-05-18T10:42:12;2.20;;;1.50;;
34204;SDS011;20471;49.680;20.074;2023-05-18T10:44:42;2.80;;;1.60;;
34204;SDS011;20471;49.680;20.074;2023-05-18T10:47:13;5.00;;;1.70;;
34204;SDS011;20471;49.680;20.074;2023-05-18T10:49:41;2.70;;;1.60;;
34204;SDS011;20471;49.680;20.074;2023-05-18T10:52:10;3.80;;;1.40;;
34204;SDS011;20471;49.680;20.074;2023-05-18T10:54:39;3.40;;;2.00;;
34204;SDS011;20471;49.680;20.074;2023-05-18T10:57:09;4.20;;;2.10;;
34204;SDS011;20471;49.680;20.074;2023-05-18T10:59:42;4.20;;;1.90;;
34204;SDS011;20471;49.680;20.074;2023-05-18T11:02:15;4.40;;;2.10;;
34204;SDS011;20471;49.680;20.074;2023-05-18T11:04:46;3.20;;;1.80;;
34204;SDS011;20471;49.680;20.074;2023-05-18T11:07:14;3.70;;;2.60;;
34204;SDS011;20471;49.680;20.074;2023-05-18T11:09:43;5.50;;;2.50;;
34204;SDS011;20471;49.680;20.074;2023-05-18T11:12:12;5.40;;;2.60;;
34204;SDS011;20471;49.680;20.074;2023-05-18T11:14:50;4.50;;;2.70;;
34204;SDS011;20471;49.680;20.074;2023-05-18T11:17:23;2.70;;;1.90;;
34204;SDS011;20471;49.680;20.074;2023-05-18T11:27:59;4.60;;;2.20;;
34204;SDS011;20471;49.680;20.074;2023-05-18T11:33:08;2.90;;;2.00;;
34204;SDS011;20471;49.680;20.074;2023-05-18T11:41:33;2.60;;;1.60;;
34204;SDS011;20471;49.680;20.074;2023-05-18T11:47:01;3.20;;;1.40;;
34204;SDS011;20471;49.680;20.074;2023-05-18T11:49:44;2.10;;;1.50;;
34204;SDS011;20471;49.680;20.074;2023-05-18T11:54:59;8.40;;;1.30;;
34204;SDS011;20471;49.680;20.074;2023-05-18T12:00:04;2.60;;;1.60;;
34204;SDS011;20471;49.680;20.074;2023-05-18T12:02:36;2.90;;;2.00;;
34204;SDS011;20471;49.680;20.074;2023-05-18T12:05:08;2.80;;;2.10;;
34204;SDS011;20471;49.680;20.074;2023-05-18T12:07:36;4.20;;;2.70;;
34204;SDS011;20471;49.680;20.074;2023-05-18T12:10:10;5.60;;;3.00;;
34204;SDS011;20471;49.680;20.074;2023-05-18T12:12:39;5.10;;;2.80;;
34204;SDS011;20471;49.680;20.074;2023-05-18T12:15:09;2.30;;;1.70;;
34204;SDS011;20471;49.680;20.074;2023-05-18T12:17:43;3.00;;;1.60;;
34204;SDS011;20471;49.680;20.074;2023-05-18T12:20:13;1.60;;;1.40;;
34204;SDS011;20471;49.680;20.074;2023-05-18T12:22:43;4.30;;;1.70;;
34204;SDS011;20471;49.680;20.074;2023-05-18T12:25:15;3.80;;;2.20;;
34204;SDS011;20471;49.680;20.074;2023-05-18T12:27:44;6.90;;;3.50;;
34204;SDS011;20471;49.680;20.074;2023-05-18T12:30:17;7.70;;;4.40;;
34204;SDS011;20471;49.680;20.074;2023-05-18T12:32:50;17.20;;;4.40;;
34204;SDS011;20471;49.680;20.074;2023-05-18T12:35:22;21.10;;;8.10;;
34204;SDS011;20471;49.680;20.074;2023-05-18T12:37:52;13.80;;;6.30;;
34204;SDS011;20471;49.680;20.074;2023-05-18T12:40:23;12.10;;;5.30;;
34204;SDS011;20471;49.680;20.074;2023-05-18T12:42:51;3.90;;;2.60;;
34204;SDS011;20471;49.680;20.074;2023-05-18T12:45:30;2.30;;;1.70;;
34204;SDS011;20471;49.680;20.074;2023-05-18T12:48:05;3.40;;;2.30;;
34204;SDS011;20471;49.680;20.074;2023-05-18T12:50:46;4.40;;;2.80;;
34204;SDS011;20471;49.680;20.074;2023-05-18T12:53:16;5.20;;;2.40;;
34204;SDS011;20471;49.680;20.074;2023-05-18T12:55:54;4.50;;;2.40;;
34204;SDS011;20471;49.680;20.074;2023-05-18T12:58:27;4.40;;;2.30;;
34204;SDS011;20471;49.680;20.074;2023-05-18T13:00:55;4.10;;;2.20;;
34204;SDS011;20471;49.680;20.074;2023-05-18T13:03:23;7.30;;;4.40;;
34204;SDS011;20471;49.680;20.074;2023-05-18T13:06:02;14.40;;;7.00;;
34204;SDS011;20471;49.680;20.074;2023-05-18T13:08:32;6.00;;;3.40;;
34204;SDS011;20471;49.680;20.074;2023-05-18T13:11:02;5.40;;;3.20;;
34204;SDS011;20471;49.680;20.074;2023-05-18T13:13:36;4.30;;;2.80;;
34204;SDS011;20471;49.680;20.074;2023-05-18T13:16:04;6.20;;;2.80;;
34204;SDS011;20471;49.680;20.074;2023-05-18T13:18:44;5.00;;;2.20;;
34204;SDS011;20471;49.680;20.074;2023-05-18T13:21:13;3.80;;;2.50;;
34204;SDS011;20471;49.680;20.074;2023-05-18T13:23:41;3.70;;;2.30;;
34204;SDS011;20471;49.680;20.074;2023-05-18T13:26:10;4.10;;;2.60;;
34204;SDS011;20471;49.680;20.074;2023-05-18T13:28:38;5.40;;;2.80;;
34204;SDS011;20471;49.680;20.074;2023-05-18T13:31:06;4.80;;;2.30;;
34204;SDS011;20471;49.680;20.074;2023-05-18T13:33:34;3.60;;;2.60;;
34204;SDS011;20471;49.680;20.074;2023-05-18T13:36:03;4.40;;;2.10;;
34204;SDS011;20471;49.680;20.074;2023-05-18T13:38:31;2.70;;;1.80;;
34204;SDS011;20471;49.680;20.074;2023-05-18T13:41:02;3.20;;;1.80;;
34204;SDS011;20471;49.680;20.074;2023-05-18T13:43:31;3.00;;;1.90;;
34204;SDS011;20471;49.680;20.074;2023-05-18T13:46:00;3.20;;;1.70;;
34204;SDS011;20471;49.680;20.074;2023-05-18T13:48:29;2.20;;;1.60;;
34204;SDS011;20471;49.680;20.074;2023-05-18T13:50:57;1.90;;;1.60;;
34204;SDS011;20471;49.680;20.074;2023-05-18T13:53:25;1.60;;;1.40;;
34204;SDS011;20471;49.680;20.074;2023-05-18T13:55:53;3.00;;;1.60;;
34204;SDS011;20471;49.680;20.074;2023-05-18T13:58:21;1.60;;;1.50;;
34204;SDS011;20471;49.680;20.074;2023-05-18T14:00:50;2.20;;;1.60;;
34204;SDS011;20471;49.680;20.074;2023-05-18T14:03:20;4.60;;;3.60;;
34204;SDS011;20471;49.680;20.074;2023-05-18T14:05:49;6.50;;;4.10;;
34204;SDS011;20471;49.680;20.074;2023-05-18T14:08:17;6.30;;;4.10;;
34204;SDS011;20471;49.680;20.074;2023-05-18T14:10:45;7.10;;;4.60;;
34204;SDS011;20471;49.680;20.074;2023-05-18T14:13:13;6.70;;;3.60;;
34204;SDS011;20471;49.680;20.074;2023-05-18T14:15:41;7.10;;;5.10;;
34204;SDS011;20471;49.680;20.074;2023-05-18T14:18:09;6.60;;;4.70;;
34204;SDS011;20471;49.680;20.074;2023-05-18T14:20:38;6.00;;;3.80;;
34204;SDS011;20471;49.680;20.074;2023-05-18T14:23:06;4.50;;;3.20;;
34204;SDS011;20471;49.680;20.074;2023-05-18T14:25:34;4.90;;;2.70;;
34204;SDS011;20471;49.680;20.074;2023-05-18T14:28:02;4.10;;;2.50;;
34204;SDS011;20471;49.680;20.074;2023-05-18T14:30:30;3.60;;;2.40;;
34204;SDS011;20471;49.680;20.074;2023-05-18T14:32:58;4.40;;;2.40;;
34204;SDS011;20471;49.680;20.074;2023-05-18T14:35:26;2.90;;;2.40;;
34204;SDS011;20471;49.680;20.074;2023-05-18T14:37:56;4.40;;;2.80;;
34204;SDS011;20471;49.680;20.074;2023-05-18T14:40:24;4.00;;;2.70;;
34204;SDS011;20471;49.680;20.074;2023-05-18T14:42:52;4.90;;;3.30;;
34204;SDS011;20471;49.680;20.074;2023-05-18T14:45:20;4.70;;;3.20;;
34204;SDS011;20471;49.680;20.074;2023-05-18T14:47:48;5.80;;;3.60;;
34204;SDS011;20471;49.680;20.074;2023-05-18T14:50:17;5.00;;;2.80;;
34204;SDS011;20471;49.680;20.074;2023-05-18T14:52:45;5.10;;;3.50;;
34204;SDS011;20471;49.680;20.074;2023-05-18T14:55:13;7.90;;;4.60;;
34204;SDS011;20471;49.680;20.074;2023-05-18T14:57:41;4.10;;;3.10;;
34204;SDS011;20471;49.680;20.074;2023-05-18T15:00:10;5.80;;;3.30;;
34204;SDS011;20471;49.680;20.074;2023-05-18T15:02:38;5.50;;;3.60;;
34204;SDS011;20471;49.680;20.074;2023-05-18T15:05:07;6.20;;;3.90;;
34204;SDS011;20471;49.680;20.074;2023-05-18T15:07:36;7.10;;;4.70;;
34204;SDS011;20471;49.680;20.074;2023-05-18T15:10:05;9.10;;;5.70;;
34204;SDS011;20471;49.680;20.074;2023-05-18T15:12:34;12.10;;;6.90;;
34204;SDS011;20471;49.680;20.074;2023-05-18T15:15:02;11.70;;;6.50;;
34204;SDS011;20471;49.680;20.074;2023-05-18T15:17:31;11.00;;;5.20;;
34204;SDS011;20471;49.680;20.074;2023-05-18T15:19:59;18.90;;;11.00;;
34204;SDS011;20471;49.680;20.074;2023-05-18T15:22:27;21.90;;;16.60;;